sensor_id;sensor_type;location;lat;lon;timestamp;P1;durP1;ratioP1;P2;durP2;ratioP2
17927;SDS011;9089;58.396;15.544;2023-04-08T00:01:12;1.73;;;1.60;;
17927;SDS011;9089;58.396;15.544;2023-04-08T00:03:39;3.17;;;1.70;;
17927;SDS011;9089;58.396;15.544;2023-04-08T00:06:04;3.67;;;1.70;;
17927;SDS011;9089;58.396;15.544;2023-04-08T00:08:30;1.77;;;1.63;;
17927;SDS011;9089;58.396;15.544;2023-04-08T00:10:56;2.58;;;1.60;;
17927;SDS011;9089;58.396;15.544;2023-04-08T00:13:21;3.05;;;1.60;;
17927;SDS011;9089;58.396;15.544;2023-04-08T00:15:47;2.72;;;2.03;;
17927;SDS011;9089;58.396;15.544;2023-04-08T00:18:12;1.50;;;1.40;;
17927;SDS011;9089;58.396;15.544;2023-04-08T00:20:39;3.05;;;1.40;;
17927;SDS011;9089;58.396;15.544;2023-04-08T00:23:05;3.03;;;1.60;;
17927;SDS011;9089;58.396;15.544;2023-04-08T00:25:30;1.63;;;1.50;;
17927;SDS011;9089;58.396;15.544;2023-04-08T00:27:55;2.05;;;1.80;;
17927;SDS011;9089;58.396;15.544;2023-04-08T00:30:21;2.05;;;1.60;;
17927;SDS011;9089;58.396;15.544;2023-04-08T00:32:46;2.10;;;1.90;;
17927;SDS011;9089;58.396;15.544;2023-04-08T00:35:12;4.22;;;2.10;;
17927;SDS011;9089;58.396;15.544;2023-04-08T00:37:39;2.13;;;1.60;;
17927;SDS011;9089;58.396;15.544;2023-04-08T00:40:05;2.35;;;1.90;;
17927;SDS011;9089;58.396;15.544;2023-04-08T00:42:31;2.35;;;1.88;;
17927;SDS011;9089;58.396;15.544;2023-04-08T00:44:56;2.60;;;1.80;;
17927;SDS011;9089;58.396;15.544;2023-04-08T00:47:22;1.73;;;1.63;;
17927;SDS011;9089;58.396;15.544;2023-04-08T00:49:47;2.70;;;1.73;;
17927;SDS011;9089;58.396;15.544;2023-04-08T00:52:13;1.92;;;1.83;;
17927;SDS011;9089;58.396;15.544;2023-04-08T00:54:40;2.00;;;1.80;;
17927;SDS011;9089;58.396;15.544;2023-04-08T00:57:05;2.10;;;1.90;;
17927;SDS011;9089;58.396;15.544;2023-04-08T00:59:32;1.92;;;1.73;;
17927;SDS011;9089;58.396;15.544;2023-04-08T01:01:58;2.00;;;1.80;;
17927;SDS011;9089;58.396;15.544;2023-04-08T01:04:27;2.10;;;1.83;;
17927;SDS011;9089;58.396;15.544;2023-04-08T01:06:55;2.47;;;2.08;;
17927;SDS011;9089;58.396;15.544;2023-04-08T01:09:22;2.13;;;1.80;;
17927;SDS011;9089;58.396;15.544;2023-04-08T01:11:49;1.70;;;1.60;;
17927;SDS011;9089;58.396;15.544;2023-04-08T01:14:16;2.25;;;1.70;;
17927;SDS011;9089;58.396;15.544;2023-04-08T01:16:44;2.00;;;1.70;;
17927;SDS011;9089;58.396;15.544;2023-04-08T01:19:12;2.88;;;1.90;;
17927;SDS011;9089;58.396;15.544;2023-04-08T01:21:41;2.53;;;1.80;;
17927;SDS011;9089;58.396;15.544;2023-04-08T01:24:08;2.17;;;1.50;;
17927;SDS011;9089;58.396;15.544;2023-04-08T01:26:36;2.05;;;1.63;;
17927;SDS011;9089;58.396;15.544;2023-04-08T01:29:02;2.15;;;1.80;;
17927;SDS011;9089;58.396;15.544;2023-04-08T01:31:29;1.80;;;1.52;;
17927;SDS011;9089;58.396;15.544;2023-04-08T01:33:56;1.92;;;1.60;;
17927;SDS011;9089;58.396;15.544;2023-04-08T01:36:23;1.65;;;1.50;;
17927;SDS011;9089;58.396;15.544;2023-04-08T01:38:50;2.10;;;1.70;;
17927;SDS011;9089;58.396;15.544;2023-04-08T01:41:16;2.13;;;1.92;;
17927;SDS011;9089;58.396;15.544;2023-04-08T01:43:43;1.80;;;1.65;;
17927;SDS011;9089;58.396;15.544;2023-04-08T01:46:10;1.77;;;1.67;;
17927;SDS011;9089;58.396;15.544;2023-04-08T01:48:37;1.60;;;1.50;;
17927;SDS011;9089;58.396;15.544;2023-04-08T01:51:03;1.90;;;1.60;;
17927;SDS011;9089;58.396;15.544;2023-04-08T01:53:29;1.63;;;1.52;;
17927;SDS011;9089;58.396;15.544;2023-04-08T01:55:56;1.60;;;1.50;;
17927;SDS011;9089;58.396;15.544;2023-04-08T01:58:22;2.20;;;1.67;;
17927;SDS011;9089;58.396;15.544;2023-04-08T02:00:50;1.90;;;1.80;;
17927;SDS011;9089;58.396;15.544;2023-04-08T02:03:17;2.83;;;1.50;;
17927;SDS011;9089;58.396;15.544;2023-04-08T02:05:44;1.70;;;1.40;;
17927;SDS011;9089;58.396;15.544;2023-04-08T02:08:10;1.88;;;1.50;;
17927;SDS011;9089;58.396;15.544;2023-04-08T02:10:36;1.92;;;1.77;;
17927;SDS011;9089;58.396;15.544;2023-04-08T02:13:03;1.70;;;1.60;;
17927;SDS011;9089;58.396;15.544;2023-04-08T02:15:29;3.50;;;1.70;;
17927;SDS011;9089;58.396;15.544;2023-04-08T02:18:01;2.88;;;1.50;;
17927;SDS011;9089;58.396;15.544;2023-04-08T02:20:33;1.70;;;1.60;;
17927;SDS011;9089;58.396;15.544;2023-04-08T02:23:02;1.55;;;1.45;;
17927;SDS011;9089;58.396;15.544;2023-04-08T02:25:29;2.65;;;1.70;;
17927;SDS011;9089;58.396;15.544;2023-04-08T02:27:58;1.77;;;1.27;;
17927;SDS011;9089;58.396;15.544;2023-04-08T02:30:24;1.50;;;1.40;;
17927;SDS011;9089;58.396;15.544;2023-04-08T02:32:52;1.80;;;1.70;;
17927;SDS011;9089;58.396;15.544;2023-04-08T02:35:19;1.70;;;1.60;;
17927;SDS011;9089;58.396;15.544;2023-04-08T02:37:45;1.65;;;1.27;;
17927;SDS011;9089;58.396;15.544;2023-04-08T02:40:25;1.85;;;1.70;;
17927;SDS011;9089;58.396;15.544;2023-04-08T02:42:51;2.03;;;1.77;;
17927;SDS011;9089;58.396;15.544;2023-04-08T02:45:16;5.15;;;1.52;;
17927;SDS011;9089;58.396;15.544;2023-04-08T02:47:42;1.33;;;1.23;;
17927;SDS011;9089;58.396;15.544;2023-04-08T02:50:07;1.70;;;1.60;;
17927;SDS011;9089;58.396;15.544;2023-04-08T02:52:34;1.60;;;1.50;;
17927;SDS011;9089;58.396;15.544;2023-04-08T02:55:00;3.20;;;1.55;;
17927;SDS011;9089;58.396;15.544;2023-04-08T02:57:25;1.98;;;1.77;;
17927;SDS011;9089;58.396;15.544;2023-04-08T02:59:51;1.48;;;1.38;;
17927;SDS011;9089;58.396;15.544;2023-04-08T03:02:16;1.63;;;1.50;;
17927;SDS011;9089;58.396;15.544;2023-04-08T03:04:42;1.40;;;1.30;;
17927;SDS011;9089;58.396;15.544;2023-04-08T03:07:07;1.80;;;1.40;;
17927;SDS011;9089;58.396;15.544;2023-04-08T03:09:34;2.25;;;1.80;;
17927;SDS011;9089;58.396;15.544;2023-04-08T03:11:59;1.60;;;1.50;;
17927;SDS011;9089;58.396;15.544;2023-04-08T03:14:25;1.65;;;1.52;;
17927;SDS011;9089;58.396;15.544;2023-04-08T03:16:50;1.73;;;1.63;;
17927;SDS011;9089;58.396;15.544;2023-04-08T03:19:16;1.60;;;1.50;;
17927;SDS011;9089;58.396;15.544;2023-04-08T03:21:41;1.60;;;1.50;;
17927;SDS011;9089;58.396;15.544;2023-04-08T03:24:06;2.03;;;1.50;;
17927;SDS011;9089;58.396;15.544;2023-04-08T03:26:33;1.70;;;1.50;;
17927;SDS011;9089;58.396;15.544;2023-04-08T03:28:59;1.65;;;1.55;;
17927;SDS011;9089;58.396;15.544;2023-04-08T03:31:24;1.90;;;1.60;;
17927;SDS011;9089;58.396;15.544;2023-04-08T03:33:50;2.33;;;1.70;;
17927;SDS011;9089;58.396;15.544;2023-04-08T03:36:15;1.67;;;1.50;;
17927;SDS011;9089;58.396;15.544;2023-04-08T03:38:40;2.00;;;1.75;;
17927;SDS011;9089;58.396;15.544;2023-04-08T03:41:06;1.60;;;1.50;;
17927;SDS011;9089;58.396;15.544;2023-04-08T03:43:33;1.67;;;1.42;;
17927;SDS011;9089;58.396;15.544;2023-04-08T03:45:58;1.67;;;1.50;;
17927;SDS011;9089;58.396;15.544;2023-04-08T03:48:23;5.28;;;1.90;;
17927;SDS011;9089;58.396;15.544;2023-04-08T03:50:49;1.90;;;1.70;;
17927;SDS011;9089;58.396;15.544;2023-04-08T03:53:15;1.88;;;1.75;;
17927;SDS011;9089;58.396;15.544;2023-04-08T03:55:40;1.55;;;1.45;;
17927;SDS011;9089;58.396;15.544;2023-04-08T03:58:06;2.65;;;1.60;;
17927;SDS011;9089;58.396;15.544;2023-04-08T04:00:32;2.83;;;1.95;;
17927;SDS011;9089;58.396;15.544;2023-04-08T04:02:59;1.80;;;1.70;;
17927;SDS011;9089;58.396;15.544;2023-04-08T04:05:25;1.88;;;1.67;;
17927;SDS011;9089;58.396;15.544;2023-04-08T04:07:50;1.60;;;1.50;;
17927;SDS011;9089;58.396;15.544;2023-04-08T04:10:16;2.03;;;1.63;;
17927;SDS011;9089;58.396;15.544;2023-04-08T04:12:41;1.92;;;1.70;;
17927;SDS011;9089;58.396;15.544;2023-04-08T04:15:09;1.58;;;1.48;;
17927;SDS011;9089;58.396;15.544;2023-04-08T04:17:36;2.55;;;1.50;;
17927;SDS011;9089;58.396;15.544;2023-04-08T04:20:02;1.60;;;1.50;;
17927;SDS011;9089;58.396;15.544;2023-04-08T04:22:28;2.30;;;1.85;;
17927;SDS011;9089;58.396;15.544;2023-04-08T04:24:53;1.67;;;1.58;;
17927;SDS011;9089;58.396;15.544;2023-04-08T04:27:18;1.70;;;1.60;;
17927;SDS011;9089;58.396;15.544;2023-04-08T04:29:44;3.10;;;1.70;;
17927;SDS011;9089;58.396;15.544;2023-04-08T04:32:09;1.73;;;1.63;;
17927;SDS011;9089;58.396;15.544;2023-04-08T04:34:36;1.88;;;1.63;;
17927;SDS011;9089;58.396;15.544;2023-04-08T04:37:01;1.60;;;1.50;;
17927;SDS011;9089;58.396;15.544;2023-04-08T04:39:27;2.17;;;1.85;;
17927;SDS011;9089;58.396;15.544;2023-04-08T04:41:52;2.30;;;1.35;;
17927;SDS011;9089;58.396;15.544;2023-04-08T04:44:18;1.85;;;1.63;;
17927;SDS011;9089;58.396;15.544;2023-04-08T04:46:43;2.08;;;1.85;;
17927;SDS011;9089;58.396;15.544;2023-04-08T04:49:09;1.52;;;1.42;;
17927;SDS011;9089;58.396;15.544;2023-04-08T04:51:36;1.70;;;1.60;;
17927;SDS011;9089;58.396;15.544;2023-04-08T04:54:02;1.80;;;1.60;;
17927;SDS011;9089;58.396;15.544;2023-04-08T04:56:27;1.60;;;1.50;;
17927;SDS011;9089;58.396;15.544;2023-04-08T04:58:52;1.75;;;1.65;;
17927;SDS011;9089;58.396;15.544;2023-04-08T05:01:18;2.20;;;2.00;;
17927;SDS011;9089;58.396;15.544;2023-04-08T05:03:43;2.88;;;1.90;;
17927;SDS011;9089;58.396;15.544;2023-04-08T05:06:09;1.95;;;1.50;;
17927;SDS011;9089;58.396;15.544;2023-04-08T05:08:35;1.95;;;1.80;;
17927;SDS011;9089;58.396;15.544;2023-04-08T05:11:01;2.70;;;1.80;;
17927;SDS011;9089;58.396;15.544;2023-04-08T05:13:26;2.42;;;1.67;;
17927;SDS011;9089;58.396;15.544;2023-04-08T05:15:52;1.80;;;1.58;;
17927;SDS011;9089;58.396;15.544;2023-04-08T05:18:17;2.50;;;1.88;;
17927;SDS011;9089;58.396;15.544;2023-04-08T05:20:43;2.22;;;1.50;;
17927;SDS011;9089;58.396;15.544;2023-04-08T05:23:08;2.40;;;1.70;;
17927;SDS011;9089;58.396;15.544;2023-04-08T05:25:35;1.80;;;1.70;;
17927;SDS011;9089;58.396;15.544;2023-04-08T05:28:00;2.40;;;1.50;;
17927;SDS011;9089;58.396;15.544;2023-04-08T05:30:26;1.77;;;1.67;;
17927;SDS011;9089;58.396;15.544;2023-04-08T05:32:51;2.15;;;1.60;;
17927;SDS011;9089;58.396;15.544;2023-04-08T05:35:16;2.45;;;1.40;;
17927;SDS011;9089;58.396;15.544;2023-04-08T05:38:00;2.28;;;1.65;;
17927;SDS011;9089;58.396;15.544;2023-04-08T05:40:26;2.08;;;1.58;;
17927;SDS011;9089;58.396;15.544;2023-04-08T05:42:53;2.65;;;1.67;;
17927;SDS011;9089;58.396;15.544;2023-04-08T05:45:18;2.13;;;1.75;;
17927;SDS011;9089;58.396;15.544;2023-04-08T05:47:44;1.52;;;1.33;;
17927;SDS011;9089;58.396;15.544;2023-04-08T05:50:09;2.70;;;1.70;;
17927;SDS011;9089;58.396;15.544;2023-04-08T05:52:35;3.85;;;1.80;;
17927;SDS011;9089;58.396;15.544;2023-04-08T05:55:00;2.72;;;1.77;;
17927;SDS011;9089;58.396;15.544;2023-04-08T05:57:26;2.08;;;1.92;;
17927;SDS011;9089;58.396;15.544;2023-04-08T05:59:53;1.70;;;1.60;;
17927;SDS011;9089;58.396;15.544;2023-04-08T06:02:18;1.65;;;1.55;;
17927;SDS011;9089;58.396;15.544;2023-04-08T06:04:43;2.50;;;1.70;;
17927;SDS011;9089;58.396;15.544;2023-04-08T06:07:09;2.10;;;1.65;;
17927;SDS011;9089;58.396;15.544;2023-04-08T06:09:35;1.88;;;1.75;;
17927;SDS011;9089;58.396;15.544;2023-04-08T06:12:01;2.80;;;1.63;;
17927;SDS011;9089;58.396;15.544;2023-04-08T06:14:26;3.47;;;1.60;;
17927;SDS011;9089;58.396;15.544;2023-04-08T06:16:53;2.45;;;1.65;;
17927;SDS011;9089;58.396;15.544;2023-04-08T06:19:21;3.08;;;1.80;;
17927;SDS011;9089;58.396;15.544;2023-04-08T06:21:46;2.47;;;1.60;;
17927;SDS011;9089;58.396;15.544;2023-04-08T06:24:12;2.05;;;1.85;;
17927;SDS011;9089;58.396;15.544;2023-04-08T06:26:37;1.73;;;1.60;;
17927;SDS011;9089;58.396;15.544;2023-04-08T06:29:21;2.40;;;1.70;;
17927;SDS011;9089;58.396;15.544;2023-04-08T06:31:47;1.73;;;1.60;;
17927;SDS011;9089;58.396;15.544;2023-04-08T06:34:14;2.08;;;1.88;;
17927;SDS011;9089;58.396;15.544;2023-04-08T06:36:39;2.92;;;1.80;;
17927;SDS011;9089;58.396;15.544;2023-04-08T06:39:05;2.00;;;1.70;;
17927;SDS011;9089;58.396;15.544;2023-04-08T06:41:30;2.20;;;1.50;;
17927;SDS011;9089;58.396;15.544;2023-04-08T06:44:02;1.88;;;1.67;;
17927;SDS011;9089;58.396;15.544;2023-04-08T06:46:27;1.80;;;1.70;;
17927;SDS011;9089;58.396;15.544;2023-04-08T06:48:53;2.75;;;1.80;;
17927;SDS011;9089;58.396;15.544;2023-04-08T06:51:21;2.67;;;1.60;;
17927;SDS011;9089;58.396;15.544;2023-04-08T06:53:46;3.28;;;1.98;;
17927;SDS011;9089;58.396;15.544;2023-04-08T06:56:12;3.72;;;1.80;;
17927;SDS011;9089;58.396;15.544;2023-04-08T06:58:37;2.55;;;1.73;;
17927;SDS011;9089;58.396;15.544;2023-04-08T07:01:03;2.58;;;1.80;;
17927;SDS011;9089;58.396;15.544;2023-04-08T07:03:29;3.42;;;1.80;;
17927;SDS011;9089;58.396;15.544;2023-04-08T07:05:54;1.73;;;1.38;;
17927;SDS011;9089;58.396;15.544;2023-04-08T07:08:21;1.67;;;1.50;;
17927;SDS011;9089;58.396;15.544;2023-04-08T07:10:47;2.63;;;1.58;;
17927;SDS011;9089;58.396;15.544;2023-04-08T07:13:12;2.08;;;1.77;;
17927;SDS011;9089;58.396;15.544;2023-04-08T07:15:38;4.25;;;1.85;;
17927;SDS011;9089;58.396;15.544;2023-04-08T07:18:03;2.47;;;2.05;;
17927;SDS011;9089;58.396;15.544;2023-04-08T07:20:30;3.00;;;1.58;;
17927;SDS011;9089;58.396;15.544;2023-04-08T07:22:55;1.83;;;1.55;;
17927;SDS011;9089;58.396;15.544;2023-04-08T07:25:22;3.10;;;1.52;;
17927;SDS011;9089;58.396;15.544;2023-04-08T07:27:47;1.67;;;1.55;;
17927;SDS011;9089;58.396;15.544;2023-04-08T07:30:13;1.98;;;1.30;;
17927;SDS011;9089;58.396;15.544;2023-04-08T07:32:38;1.75;;;1.48;;
17927;SDS011;9089;58.396;15.544;2023-04-08T07:35:04;1.52;;;1.33;;
17927;SDS011;9089;58.396;15.544;2023-04-08T07:37:29;1.52;;;1.38;;
17927;SDS011;9089;58.396;15.544;2023-04-08T07:39:55;1.60;;;1.50;;
17927;SDS011;9089;58.396;15.544;2023-04-08T07:42:22;1.17;;;1.08;;
17927;SDS011;9089;58.396;15.544;2023-04-08T07:44:47;3.60;;;1.40;;
17927;SDS011;9089;58.396;15.544;2023-04-08T07:47:13;1.98;;;1.30;;
17927;SDS011;9089;58.396;15.544;2023-04-08T07:49:38;2.55;;;1.55;;
17927;SDS011;9089;58.396;15.544;2023-04-08T07:52:04;1.58;;;1.20;;
17927;SDS011;9089;58.396;15.544;2023-04-08T07:54:29;2.28;;;1.70;;
17927;SDS011;9089;58.396;15.544;2023-04-08T07:56:55;3.90;;;1.40;;
17927;SDS011;9089;58.396;15.544;2023-04-08T07:59:22;1.38;;;1.15;;
17927;SDS011;9089;58.396;15.544;2023-04-08T08:01:47;2.03;;;1.40;;
17927;SDS011;9089;58.396;15.544;2023-04-08T08:04:13;3.38;;;1.63;;
17927;SDS011;9089;58.396;15.544;2023-04-08T08:06:38;4.13;;;1.38;;
17927;SDS011;9089;58.396;15.544;2023-04-08T08:09:04;1.40;;;1.30;;
17927;SDS011;9089;58.396;15.544;2023-04-08T08:11:29;3.75;;;1.30;;
17927;SDS011;9089;58.396;15.544;2023-04-08T08:13:55;2.55;;;1.65;;
17927;SDS011;9089;58.396;15.544;2023-04-08T08:16:22;1.50;;;1.40;;
17927;SDS011;9089;58.396;15.544;2023-04-08T08:18:51;1.48;;;1.33;;
17927;SDS011;9089;58.396;15.544;2023-04-08T08:21:16;1.38;;;1.27;;
17927;SDS011;9089;58.396;15.544;2023-04-08T08:24:00;2.67;;;1.20;;
17927;SDS011;9089;58.396;15.544;2023-04-08T08:26:26;1.30;;;1.20;;
17927;SDS011;9089;58.396;15.544;2023-04-08T08:28:52;1.85;;;1.45;;
17927;SDS011;9089;58.396;15.544;2023-04-08T08:31:18;3.05;;;1.40;;
17927;SDS011;9089;58.396;15.544;2023-04-08T08:33:45;3.13;;;1.27;;
17927;SDS011;9089;58.396;15.544;2023-04-08T08:36:11;2.70;;;1.00;;
17927;SDS011;9089;58.396;15.544;2023-04-08T08:38:37;3.10;;;1.20;;
17927;SDS011;9089;58.396;15.544;2023-04-08T08:41:02;2.78;;;1.30;;
17927;SDS011;9089;58.396;15.544;2023-04-08T08:43:28;2.45;;;1.05;;
17927;SDS011;9089;58.396;15.544;2023-04-08T08:45:54;2.30;;;1.30;;
17927;SDS011;9089;58.396;15.544;2023-04-08T08:48:19;1.42;;;1.20;;
17927;SDS011;9089;58.396;15.544;2023-04-08T08:50:46;2.78;;;1.45;;
17927;SDS011;9089;58.396;15.544;2023-04-08T08:53:12;2.70;;;1.10;;
17927;SDS011;9089;58.396;15.544;2023-04-08T08:55:37;1.45;;;1.08;;
17927;SDS011;9089;58.396;15.544;2023-04-08T08:58:04;1.92;;;1.08;;
17927;SDS011;9089;58.396;15.544;2023-04-08T09:00:30;1.67;;;1.10;;
17927;SDS011;9089;58.396;15.544;2023-04-08T09:02:55;1.13;;;0.98;;
17927;SDS011;9089;58.396;15.544;2023-04-08T09:05:21;1.77;;;1.10;;
17927;SDS011;9089;58.396;15.544;2023-04-08T09:07:48;2.13;;;0.90;;
17927;SDS011;9089;58.396;15.544;2023-04-08T09:10:13;1.40;;;0.90;;
17927;SDS011;9089;58.396;15.544;2023-04-08T09:12:51;0.70;;;0.70;;
17927;SDS011;9089;58.396;15.544;2023-04-08T09:15:17;1.55;;;1.00;;
17927;SDS011;9089;58.396;15.544;2023-04-08T09:17:42;2.05;;;0.90;;
17927;SDS011;9089;58.396;15.544;2023-04-08T09:20:08;1.27;;;1.02;;
17927;SDS011;9089;58.396;15.544;2023-04-08T09:25:42;1.88;;;1.30;;
17927;SDS011;9089;58.396;15.544;2023-04-08T09:28:17;1.35;;;1.05;;
17927;SDS011;9089;58.396;15.544;2023-04-08T09:30:43;3.53;;;1.05;;
17927;SDS011;9089;58.396;15.544;2023-04-08T09:33:08;0.70;;;0.70;;
17927;SDS011;9089;58.396;15.544;2023-04-08T09:35:33;1.25;;;1.00;;
17927;SDS011;9089;58.396;15.544;2023-04-08T09:38:00;1.25;;;0.98;;
17927;SDS011;9089;58.396;15.544;2023-04-08T09:40:46;0.80;;;0.80;;
17927;SDS011;9089;58.396;15.544;2023-04-08T09:43:12;0.75;;;0.75;;
17927;SDS011;9089;58.396;15.544;2023-04-08T09:45:37;1.27;;;0.88;;
17927;SDS011;9089;58.396;15.544;2023-04-08T09:48:07;1.85;;;0.90;;
17927;SDS011;9089;58.396;15.544;2023-04-08T09:50:35;0.70;;;0.70;;
17927;SDS011;9089;58.396;15.544;2023-04-08T09:53:13;4.78;;;0.95;;
17927;SDS011;9089;58.396;15.544;2023-04-08T09:55:43;2.13;;;0.80;;
17927;SDS011;9089;58.396;15.544;2023-04-08T09:58:14;0.90;;;0.90;;
17927;SDS011;9089;58.396;15.544;2023-04-08T10:00:41;1.35;;;0.90;;
17927;SDS011;9089;58.396;15.544;2023-04-08T10:03:11;0.73;;;0.73;;
17927;SDS011;9089;58.396;15.544;2023-04-08T10:05:39;1.40;;;0.90;;
17927;SDS011;9089;58.396;15.544;2023-04-08T10:08:05;1.58;;;0.70;;
17927;SDS011;9089;58.396;15.544;2023-04-08T10:10:31;1.10;;;0.77;;
17927;SDS011;9089;58.396;15.544;2023-04-08T10:12:57;0.60;;;0.60;;
17927;SDS011;9089;58.396;15.544;2023-04-08T10:15:25;0.80;;;0.80;;
17927;SDS011;9089;58.396;15.544;2023-04-08T10:17:50;1.25;;;0.82;;
17927;SDS011;9089;58.396;15.544;2023-04-08T10:23:12;0.50;;;0.50;;
17927;SDS011;9089;58.396;15.544;2023-04-08T10:25:38;1.20;;;0.90;;
17927;SDS011;9089;58.396;15.544;2023-04-08T10:30:48;0.60;;;0.60;;
17927;SDS011;9089;58.396;15.544;2023-04-08T10:33:14;0.95;;;0.95;;
17927;SDS011;9089;58.396;15.544;2023-04-08T10:35:41;2.05;;;0.90;;
17927;SDS011;9089;58.396;15.544;2023-04-08T10:38:06;0.98;;;0.88;;
17927;SDS011;9089;58.396;15.544;2023-04-08T10:40:34;1.40;;;0.90;;
17927;SDS011;9089;58.396;15.544;2023-04-08T10:43:01;1.63;;;0.82;;
17927;SDS011;9089;58.396;15.544;2023-04-08T10:45:27;2.58;;;1.00;;
17927;SDS011;9089;58.396;15.544;2023-04-08T10:47:54;1.00;;;0.80;;
17927;SDS011;9089;58.396;15.544;2023-04-08T10:50:19;1.13;;;0.93;;
17927;SDS011;9089;58.396;15.544;2023-04-08T10:52:48;1.00;;;0.88;;
17927;SDS011;9089;58.396;15.544;2023-04-08T10:55:14;0.75;;;0.73;;
17927;SDS011;9089;58.396;15.544;2023-04-08T10:57:40;1.05;;;0.77;;
17927;SDS011;9089;58.396;15.544;2023-04-08T11:00:06;1.38;;;0.82;;
17927;SDS011;9089;58.396;15.544;2023-04-08T11:02:34;2.10;;;1.35;;
17927;SDS011;9089;58.396;15.544;2023-04-08T11:05:03;2.15;;;1.00;;
17927;SDS011;9089;58.396;15.544;2023-04-08T11:07:29;1.65;;;1.02;;
17927;SDS011;9089;58.396;15.544;2023-04-08T11:09:54;2.53;;;0.98;;
17927;SDS011;9089;58.396;15.544;2023-04-08T11:12:21;0.98;;;0.98;;
17927;SDS011;9089;58.396;15.544;2023-04-08T11:14:46;1.55;;;1.00;;
17927;SDS011;9089;58.396;15.544;2023-04-08T11:17:13;0.98;;;0.80;;
17927;SDS011;9089;58.396;15.544;2023-04-08T11:19:40;0.90;;;0.80;;
17927;SDS011;9089;58.396;15.544;2023-04-08T11:22:06;1.02;;;0.60;;
17927;SDS011;9089;58.396;15.544;2023-04-08T11:24:33;1.33;;;0.80;;
17927;SDS011;9089;58.396;15.544;2023-04-08T11:26:59;1.50;;;1.00;;
17927;SDS011;9089;58.396;15.544;2023-04-08T11:29:24;0.80;;;0.80;;
17927;SDS011;9089;58.396;15.544;2023-04-08T11:31:50;0.80;;;0.80;;
17927;SDS011;9089;58.396;15.544;2023-04-08T11:34:20;1.27;;;0.90;;
17927;SDS011;9089;58.396;15.544;2023-04-08T11:36:46;0.95;;;0.95;;
17927;SDS011;9089;58.396;15.544;2023-04-08T11:39:13;0.65;;;0.60;;
17927;SDS011;9089;58.396;15.544;2023-04-08T11:41:38;3.08;;;0.90;;
17927;SDS011;9089;58.396;15.544;2023-04-08T11:44:06;1.00;;;0.70;;
17927;SDS011;9089;58.396;15.544;2023-04-08T11:46:32;1.95;;;0.95;;
17927;SDS011;9089;58.396;15.544;2023-04-08T11:48:59;1.58;;;0.70;;
17927;SDS011;9089;58.396;15.544;2023-04-08T11:51:25;1.17;;;0.82;;
17927;SDS011;9089;58.396;15.544;2023-04-08T11:53:51;0.95;;;0.80;;
17927;SDS011;9089;58.396;15.544;2023-04-08T11:56:18;0.90;;;0.80;;
17927;SDS011;9089;58.396;15.544;2023-04-08T11:58:44;1.75;;;1.08;;
17927;SDS011;9089;58.396;15.544;2023-04-08T12:01:10;1.15;;;0.85;;
17927;SDS011;9089;58.396;15.544;2023-04-08T12:03:36;1.45;;;0.70;;
17927;SDS011;9089;58.396;15.544;2023-04-08T12:06:01;0.85;;;0.60;;
17927;SDS011;9089;58.396;15.544;2023-04-08T12:08:26;0.77;;;0.70;;
17927;SDS011;9089;58.396;15.544;2023-04-08T12:10:52;0.88;;;0.60;;
17927;SDS011;9089;58.396;15.544;2023-04-08T12:13:19;0.68;;;0.68;;
17927;SDS011;9089;58.396;15.544;2023-04-08T12:15:45;1.92;;;0.60;;
17927;SDS011;9089;58.396;15.544;2023-04-08T12:18:10;0.90;;;0.80;;
17927;SDS011;9089;58.396;15.544;2023-04-08T12:20:35;1.27;;;0.73;;
17927;SDS011;9089;58.396;15.544;2023-04-08T12:23:01;0.80;;;0.75;;
17927;SDS011;9089;58.396;15.544;2023-04-08T12:25:26;1.15;;;1.02;;
17927;SDS011;9089;58.396;15.544;2023-04-08T12:27:52;0.60;;;0.60;;
17927;SDS011;9089;58.396;15.544;2023-04-08T12:30:19;2.58;;;0.80;;
17927;SDS011;9089;58.396;15.544;2023-04-08T12:32:45;3.75;;;0.80;;
17927;SDS011;9089;58.396;15.544;2023-04-08T12:35:12;0.70;;;0.60;;
17927;SDS011;9089;58.396;15.544;2023-04-08T12:37:39;1.02;;;0.70;;
17927;SDS011;9089;58.396;15.544;2023-04-08T12:40:05;1.98;;;0.73;;
17927;SDS011;9089;58.396;15.544;2023-04-08T12:42:30;0.80;;;0.70;;
17927;SDS011;9089;58.396;15.544;2023-04-08T12:44:56;1.15;;;0.60;;
17927;SDS011;9089;58.396;15.544;2023-04-08T12:47:23;0.50;;;0.50;;
17927;SDS011;9089;58.396;15.544;2023-04-08T12:49:48;0.95;;;0.60;;
17927;SDS011;9089;58.396;15.544;2023-04-08T12:52:14;0.70;;;0.70;;
17927;SDS011;9089;58.396;15.544;2023-04-08T12:54:39;0.88;;;0.70;;
17927;SDS011;9089;58.396;15.544;2023-04-08T12:57:05;0.70;;;0.60;;
17927;SDS011;9089;58.396;15.544;2023-04-08T12:59:30;0.65;;;0.65;;
17927;SDS011;9089;58.396;15.544;2023-04-08T13:01:57;1.13;;;0.80;;
17927;SDS011;9089;58.396;15.544;2023-04-08T13:04:24;0.85;;;0.60;;
17927;SDS011;9089;58.396;15.544;2023-04-08T13:06:49;1.30;;;0.68;;
17927;SDS011;9089;58.396;15.544;2023-04-08T13:09:15;0.63;;;0.63;;
17927;SDS011;9089;58.396;15.544;2023-04-08T13:11:41;0.90;;;0.60;;
17927;SDS011;9089;58.396;15.544;2023-04-08T13:14:06;1.85;;;0.60;;
17927;SDS011;9089;58.396;15.544;2023-04-08T13:16:32;1.25;;;0.70;;
17927;SDS011;9089;58.396;15.544;2023-04-08T13:18:58;0.85;;;0.60;;
17927;SDS011;9089;58.396;15.544;2023-04-08T13:21:24;0.50;;;0.50;;
17927;SDS011;9089;58.396;15.544;2023-04-08T13:23:50;3.03;;;0.57;;
17927;SDS011;9089;58.396;15.544;2023-04-08T13:26:16;0.57;;;0.52;;
17927;SDS011;9089;58.396;15.544;2023-04-08T13:28:41;1.02;;;0.70;;
17927;SDS011;9089;58.396;15.544;2023-04-08T13:31:07;0.90;;;0.70;;
17927;SDS011;9089;58.396;15.544;2023-04-08T13:33:32;1.67;;;0.70;;
17927;SDS011;9089;58.396;15.544;2023-04-08T13:35:58;2.35;;;0.50;;
17927;SDS011;9089;58.396;15.544;2023-04-08T13:38:24;0.50;;;0.50;;
17927;SDS011;9089;58.396;15.544;2023-04-08T13:40:50;0.68;;;0.60;;
17927;SDS011;9089;58.396;15.544;2023-04-08T13:43:15;0.88;;;0.70;;
17927;SDS011;9089;58.396;15.544;2023-04-08T13:45:41;0.98;;;0.70;;
17927;SDS011;9089;58.396;15.544;2023-04-08T13:48:06;1.92;;;0.80;;
17927;SDS011;9089;58.396;15.544;2023-04-08T13:50:32;0.60;;;0.60;;
17927;SDS011;9089;58.396;15.544;2023-04-08T13:52:57;0.60;;;0.60;;
17927;SDS011;9089;58.396;15.544;2023-04-08T13:55:24;0.80;;;0.70;;
17927;SDS011;9089;58.396;15.544;2023-04-08T13:57:49;1.00;;;0.50;;
17927;SDS011;9089;58.396;15.544;2023-04-08T14:00:15;1.58;;;0.82;;
17927;SDS011;9089;58.396;15.544;2023-04-08T14:02:40;1.38;;;0.98;;
17927;SDS011;9089;58.396;15.544;2023-04-08T14:05:06;1.17;;;0.80;;
17927;SDS011;9089;58.396;15.544;2023-04-08T14:07:31;1.05;;;0.60;;
17927;SDS011;9089;58.396;15.544;2023-04-08T14:09:57;0.70;;;0.68;;
17927;SDS011;9089;58.396;15.544;2023-04-08T14:12:24;0.52;;;0.52;;
17927;SDS011;9089;58.396;15.544;2023-04-08T14:14:49;1.08;;;0.73;;
17927;SDS011;9089;58.396;15.544;2023-04-08T14:17:15;0.60;;;0.60;;
17927;SDS011;9089;58.396;15.544;2023-04-08T14:19:40;0.60;;;0.60;;
17927;SDS011;9089;58.396;15.544;2023-04-08T14:22:06;0.70;;;0.70;;
17927;SDS011;9089;58.396;15.544;2023-04-08T14:24:31;0.63;;;0.63;;
17927;SDS011;9089;58.396;15.544;2023-04-08T14:26:57;0.90;;;0.57;;
17927;SDS011;9089;58.396;15.544;2023-04-08T14:29:23;0.88;;;0.60;;
17927;SDS011;9089;58.396;15.544;2023-04-08T14:31:49;1.85;;;0.93;;
17927;SDS011;9089;58.396;15.544;2023-04-08T14:34:14;0.50;;;0.47;;
17927;SDS011;9089;58.396;15.544;2023-04-08T14:36:40;0.65;;;0.60;;
17927;SDS011;9089;58.396;15.544;2023-04-08T14:39:05;0.85;;;0.60;;
17927;SDS011;9089;58.396;15.544;2023-04-08T14:41:31;1.35;;;0.70;;
17927;SDS011;9089;58.396;15.544;2023-04-08T14:43:56;1.95;;;0.77;;
17927;SDS011;9089;58.396;15.544;2023-04-08T14:46:24;0.90;;;0.60;;
17927;SDS011;9089;58.396;15.544;2023-04-08T14:48:50;1.50;;;0.70;;
17927;SDS011;9089;58.396;15.544;2023-04-08T14:51:15;1.15;;;0.70;;